Time;durP1;ratioP1;P1;durP2;ratioP2;P2;SDS_P1;SDS_P2;PMS_P1;PMS_P2;Temp;Humidity;BMP_temperature;BMP_pressure;BME280_temperature;BME280_humidity;BME280_pressure;Samples;Min_cycle;Max_cycle;Signal;HPM_P1;HPM_P2
2023/07/03 00:00:12;;;;;;;12.30;3.95;;;;;;;;;;4878614;29;20051;-73
2023/07/03 00:02:39;;;;;;;14.25;5.03;;;;;;;;;;4882039;29;20126;-73
2023/07/03 00:05:06;;;;;;;16.00;5.30;;;;;;;;;;4896587;29;20044;-73
2023/07/03 00:07:33;;;;;;;11.90;3.85;;;;;;;;;;4896305;29;20118;-74
2023/07/03 00:09:59;;;;;;;13.63;4.40;;;;;;;;;;4868769;29;20165;-73
2023/07/03 00:12:25;;;;;;;19.55;4.38;;;;;;;;;;4880309;29;20072;-73
2023/07/03 00:14:51;;;;;;;22.08;5.18;;;;;;;;;;4880622;29;20114;-74
2023/07/03 00:17:17;;;;;;;14.13;4.68;;;;;;;;;;4895345;29;20052;-72
2023/07/03 00:19:44;;;;;;;14.25;4.82;;;;;;;;;;4894532;29;20803;-72
2023/07/03 00:22:10;;;;;;;14.65;4.70;;;;;;;;;;4881372;29;20048;-72
2023/07/03 00:24:36;;;;;;;16.88;4.78;;;;;;;;;;4881467;29;20142;-73
2023/07/03 00:27:02;;;;;;;17.27;4.80;;;;;;;;;;4875139;29;20187;-73
2023/07/03 00:29:31;;;;;;;16.15;4.43;;;;;;;;;;4878227;29;20032;-73
2023/07/03 00:31:58;;;;;;;15.15;4.63;;;;;;;;;;4895637;29;20073;-72
2023/07/03 00:34:24;;;;;;;16.25;5.45;;;;;;;;;;4895589;29;20162;-73
2023/07/03 00:36:50;;;;;;;16.15;5.05;;;;;;;;;;4895604;29;20076;-74
2023/07/03 00:39:16;;;;;;;14.52;5.00;;;;;;;;;;4864871;29;20733;-73
2023/07/03 00:41:43;;;;;;;13.15;4.47;;;;;;;;;;4895383;29;22715;-74
2023/07/03 00:44:11;;;;;;;16.15;5.38;;;;;;;;;;4878909;29;20047;-73
2023/07/03 00:46:38;;;;;;;16.77;4.95;;;;;;;;;;4894819;29;20054;-73
2023/07/03 00:49:04;;;;;;;15.00;4.97;;;;;;;;;;4881575;29;20039;-73
2023/07/03 00:51:30;;;;;;;13.93;4.20;;;;;;;;;;4897370;29;20482;-74
2023/07/03 00:53:56;;;;;;;14.13;3.97;;;;;;;;;;4894944;29;20040;-73
2023/07/03 00:56:23;;;;;;;10.88;4.28;;;;;;;;;;4897635;29;20441;-73
2023/07/03 00:58:49;;;;;;;17.15;4.80;;;;;;;;;;4897335;29;20993;-73
2023/07/03 01:01:19;;;;;;;21.45;4.32;;;;;;;;;;4899089;29;20082;-73
2023/07/03 01:03:57;;;;;;;17.95;4.45;;;;;;;;;;4902655;29;20079;-73
2023/07/03 01:06:28;;;;;;;17.10;5.10;;;;;;;;;;4885631;29;20064;-73
2023/07/03 01:08:57;;;;;;;13.75;3.90;;;;;;;;;;4889543;29;20122;-73
2023/07/03 01:11:23;;;;;;;16.98;4.30;;;;;;;;;;4890033;29;20166;-74
2023/07/03 01:13:51;;;;;;;10.68;3.65;;;;;;;;;;4901606;29;22089;-74
2023/07/03 01:16:17;;;;;;;14.50;4.35;;;;;;;;;;4901479;29;20571;-73
2023/07/03 01:18:44;;;;;;;12.13;4.25;;;;;;;;;;4883827;29;21948;-74
2023/07/03 01:21:18;;;;;;;15.63;4.90;;;;;;;;;;4902701;29;20044;-74
2023/07/03 01:24:04;;;;;;;18.13;4.38;;;;;;;;;;4885662;29;20236;-73
2023/07/03 01:26:30;;;;;;;13.93;3.78;;;;;;;;;;4899845;29;20044;-72
2023/07/03 01:28:57;;;;;;;9.35;3.42;;;;;;;;;;4881204;29;20863;-72
2023/07/03 01:31:25;;;;;;;12.30;4.43;;;;;;;;;;4902997;29;20190;-72
2023/07/03 01:33:51;;;;;;;20.45;4.30;;;;;;;;;;4902094;29;20051;-73
2023/07/03 01:36:18;;;;;;;16.38;3.80;;;;;;;;;;4887963;29;20036;-73
2023/07/03 01:38:45;;;;;;;11.25;3.72;;;;;;;;;;4890887;29;20048;-72
2023/07/03 01:41:11;;;;;;;20.15;4.60;;;;;;;;;;4888778;29;20221;-74
2023/07/03 01:43:38;;;;;;;19.00;4.72;;;;;;;;;;4900713;29;20044;-74
2023/07/03 01:46:04;;;;;;;19.10;4.15;;;;;;;;;;4883420;29;20047;-73
2023/07/03 01:48:32;;;;;;;15.25;3.65;;;;;;;;;;4886736;29;20094;-73
2023/07/03 01:50:58;;;;;;;13.57;4.00;;;;;;;;;;4885413;29;20183;-73
2023/07/03 01:53:27;;;;;;;15.60;4.80;;;;;;;;;;4871095;29;20459;-73
2023/07/03 01:55:53;;;;;;;11.68;4.00;;;;;;;;;;4902063;29;20044;-72
2023/07/03 01:58:35;;;;;;;14.57;4.50;;;;;;;;;;4884456;29;20082;-72
2023/07/03 02:01:07;;;;;;;13.60;4.75;;;;;;;;;;4880566;29;20054;-72
2023/07/03 02:03:42;;;;;;;12.73;4.05;;;;;;;;;;4896400;29;20043;-73
2023/07/03 02:06:11;;;;;;;18.58;3.72;;;;;;;;;;4880777;29;20035;-74
2023/07/03 02:08:38;;;;;;;16.38;4.13;;;;;;;;;;4884100;29;21110;-73
2023/07/03 02:11:04;;;;;;;21.02;4.88;;;;;;;;;;4888920;29;20066;-73
2023/07/03 02:13:30;;;;;;;16.33;4.18;;;;;;;;;;4900682;29;20066;-72
2023/07/03 02:15:56;;;;;;;14.82;4.22;;;;;;;;;;4882607;29;20052;-73
2023/07/03 02:18:23;;;;;;;16.05;4.47;;;;;;;;;;4870002;29;20094;-73
2023/07/03 02:20:49;;;;;;;14.30;3.65;;;;;;;;;;4881188;29;20485;-73
2023/07/03 02:23:16;;;;;;;12.07;3.20;;;;;;;;;;4882530;29;20055;-72
2023/07/03 02:25:43;;;;;;;19.20;3.70;;;;;;;;;;4887066;29;20138;-74
2023/07/03 02:28:10;;;;;;;18.92;3.90;;;;;;;;;;4902109;29;20044;-72
2023/07/03 02:30:36;;;;;;;16.67;3.65;;;;;;;;;;4893310;29;20056;-73
2023/07/03 02:33:02;;;;;;;9.85;3.22;;;;;;;;;;4900547;29;20052;-73
2023/07/03 02:35:28;;;;;;;8.95;3.05;;;;;;;;;;4894394;29;20054;-72
2023/07/03 02:37:54;;;;;;;19.80;3.58;;;;;;;;;;4906565;29;20063;-72
2023/07/03 02:40:20;;;;;;;10.23;3.73;;;;;;;;;;4886982;29;20048;-72
2023/07/03 02:42:46;;;;;;;13.35;4.57;;;;;;;;;;4886620;29;20599;-72
2023/07/03 02:45:12;;;;;;;15.52;3.30;;;;;;;;;;4883773;29;20059;-72
2023/07/03 02:47:38;;;;;;;17.10;4.20;;;;;;;;;;4899302;29;20056;-73
2023/07/03 02:50:05;;;;;;;21.13;4.55;;;;;;;;;;4879271;29;20055;-72
2023/07/03 02:52:31;;;;;;;14.13;3.50;;;;;;;;;;4882615;29;20083;-73
2023/07/03 02:54:58;;;;;;;14.82;3.38;;;;;;;;;;4886177;29;20436;-72
2023/07/03 02:57:24;;;;;;;12.25;3.95;;;;;;;;;;4883145;29;20763;-72
2023/07/03 02:59:50;;;;;;;15.85;3.97;;;;;;;;;;4900052;29;20048;-73
2023/07/03 03:02:16;;;;;;;12.00;2.65;;;;;;;;;;4887608;29;20059;-73
2023/07/03 03:04:42;;;;;;;14.68;3.60;;;;;;;;;;4891747;29;20760;-72
2023/07/03 03:07:09;;;;;;;14.38;3.75;;;;;;;;;;4904584;29;20039;-72
2023/07/03 03:09:35;;;;;;;10.27;3.33;;;;;;;;;;4901546;29;20103;-74
2023/07/03 03:12:01;;;;;;;16.00;3.40;;;;;;;;;;4882566;29;20052;-73
2023/07/03 03:14:27;;;;;;;12.73;3.53;;;;;;;;;;4884136;29;20075;-73
2023/07/03 03:16:53;;;;;;;14.57;4.00;;;;;;;;;;4885850;29;20044;-73
2023/07/03 03:19:19;;;;;;;12.02;3.20;;;;;;;;;;4883196;29;20047;-72
2023/07/03 03:21:49;;;;;;;11.25;3.08;;;;;;;;;;4886708;29;20052;-72
2023/07/03 03:24:15;;;;;;;10.10;3.15;;;;;;;;;;4874233;29;20079;-73
2023/07/03 03:26:41;;;;;;;14.25;2.83;;;;;;;;;;4903674;29;20665;-73
2023/07/03 03:29:08;;;;;;;10.57;2.65;;;;;;;;;;4900917;29;20577;-72
2023/07/03 03:31:34;;;;;;;9.43;2.60;;;;;;;;;;4881772;29;20063;-72
2023/07/03 03:34:00;;;;;;;18.73;3.47;;;;;;;;;;4896082;29;20091;-73
2023/07/03 03:36:26;;;;;;;10.82;2.55;;;;;;;;;;4897176;29;20123;-73
2023/07/03 03:38:52;;;;;;;14.48;3.30;;;;;;;;;;4894955;29;20040;-73
2023/07/03 03:41:18;;;;;;;11.38;2.75;;;;;;;;;;4878599;29;20051;-72
2023/07/03 03:43:48;;;;;;;12.48;3.03;;;;;;;;;;4892484;29;20052;-72
2023/07/03 03:46:14;;;;;;;10.55;2.70;;;;;;;;;;4879075;29;20075;-72
2023/07/03 03:48:40;;;;;;;11.43;2.90;;;;;;;;;;4882054;29;20047;-73
2023/07/03 03:51:06;;;;;;;13.45;2.90;;;;;;;;;;4876363;29;20047;-73
2023/07/03 03:53:32;;;;;;;17.30;4.05;;;;;;;;;;4866964;29;20052;-72
2023/07/03 03:55:58;;;;;;;13.48;2.72;;;;;;;;;;4895836;29;20409;-73
2023/07/03 03:58:25;;;;;;;14.73;3.33;;;;;;;;;;4901716;29;20052;-73
2023/07/03 04:00:51;;;;;;;11.20;2.40;;;;;;;;;;4897736;29;20043;-72
2023/07/03 04:03:17;;;;;;;13.13;2.47;;;;;;;;;;4878996;29;22497;-74
2023/07/03 04:05:43;;;;;;;9.45;2.22;;;;;;;;;;4876857;29;20119;-73
2023/07/03 04:08:10;;;;;;;12.13;2.78;;;;;;;;;;4882184;29;20055;-73
2023/07/03 04:10:36;;;;;;;14.65;3.38;;;;;;;;;;4891881;29;20040;-73
2023/07/03 04:13:03;;;;;;;8.52;2.33;;;;;;;;;;4897103;29;20071;-74
2023/07/03 04:15:32;;;;;;;13.40;2.75;;;;;;;;;;4879819;29;20095;-71
2023/07/03 04:17:58;;;;;;;12.82;2.75;;;;;;;;;;4898203;29;20080;-73
2023/07/03 04:20:25;;;;;;;14.18;3.08;;;;;;;;;;4886641;29;20035;-72
2023/07/03 04:22:51;;;;;;;12.38;2.50;;;;;;;;;;4882818;29;20064;-73
2023/07/03 04:25:17;;;;;;;9.98;2.53;;;;;;;;;;4898365;29;20155;-72
2023/07/03 04:27:43;;;;;;;12.10;2.72;;;;;;;;;;4901869;29;20071;-72
2023/07/03 04:30:10;;;;;;;16.27;3.30;;;;;;;;;;4897965;29;20047;-72
2023/07/03 04:32:36;;;;;;;10.27;2.10;;;;;;;;;;4877024;29;20060;-73
2023/07/03 04:35:03;;;;;;;10.65;2.42;;;;;;;;;;4883763;29;21994;-73
2023/07/03 04:37:29;;;;;;;12.30;2.67;;;;;;;;;;4887721;29;20401;-73
2023/07/03 04:39:56;;;;;;;12.65;3.58;;;;;;;;;;4896820;29;20055;-73
2023/07/03 04:42:22;;;;;;;9.10;2.20;;;;;;;;;;4877094;29;20051;-74
2023/07/03 04:44:48;;;;;;;12.10;2.92;;;;;;;;;;4884890;29;20161;-73
2023/07/03 04:47:15;;;;;;;14.88;2.97;;;;;;;;;;4881431;29;20059;-73
2023/07/03 04:49:41;;;;;;;11.18;2.75;;;;;;;;;;4882950;29;20044;-72
2023/07/03 04:52:08;;;;;;;13.63;3.28;;;;;;;;;;4881653;29;20587;-73
2023/07/03 04:54:35;;;;;;;16.88;2.80;;;;;;;;;;4883253;29;20058;-73
2023/07/03 04:57:01;;;;;;;12.57;3.10;;;;;;;;;;4882366;29;20043;-73
2023/07/03 04:59:27;;;;;;;10.50;2.20;;;;;;;;;;4884365;29;20158;-72
2023/07/03 05:01:53;;;;;;;12.48;2.80;;;;;;;;;;4900042;29;20052;-73
2023/07/03 05:04:19;;;;;;;15.02;2.80;;;;;;;;;;4883278;29;21273;-73
2023/07/03 05:06:46;;;;;;;17.73;3.20;;;;;;;;;;4875749;29;20126;-73
2023/07/03 05:09:12;;;;;;;14.18;2.88;;;;;;;;;;4885577;29;20071;-73
2023/07/03 05:11:38;;;;;;;15.75;2.70;;;;;;;;;;4886294;29;22008;-74
2023/07/03 05:14:04;;;;;;;15.55;3.33;;;;;;;;;;4884816;29;20052;-73
2023/07/03 05:16:30;;;;;;;12.68;2.35;;;;;;;;;;4901281;29;20079;-74
2023/07/03 05:18:56;;;;;;;12.23;2.72;;;;;;;;;;4902924;29;20380;-73
2023/07/03 05:21:22;;;;;;;12.73;2.50;;;;;;;;;;4884594;29;20073;-73
2023/07/03 05:23:48;;;;;;;9.73;2.47;;;;;;;;;;4903532;29;20085;-73
2023/07/03 05:26:14;;;;;;;13.10;2.65;;;;;;;;;;4891331;29;20048;-71
2023/07/03 05:28:41;;;;;;;12.38;2.50;;;;;;;;;;4885055;29;20113;-73
2023/07/03 05:31:07;;;;;;;12.75;2.58;;;;;;;;;;4903293;29;20064;-74
2023/07/03 05:33:33;;;;;;;16.05;2.83;;;;;;;;;;4903634;29;20058;-74
2023/07/03 05:36:00;;;;;;;12.77;2.45;;;;;;;;;;4888170;29;20078;-71
2023/07/03 05:38:26;;;;;;;9.30;2.70;;;;;;;;;;4886427;29;20070;-74
2023/07/03 05:40:53;;;;;;;10.70;2.72;;;;;;;;;;4900615;29;20136;-73
2023/07/03 05:43:20;;;;;;;10.85;2.25;;;;;;;;;;4886553;29;20609;-72
2023/07/03 05:45:49;;;;;;;15.63;2.90;;;;;;;;;;4884136;29;20173;-73
2023/07/03 05:48:16;;;;;;;9.63;2.42;;;;;;;;;;4883517;29;20089;-72
2023/07/03 05:50:42;;;;;;;14.32;2.58;;;;;;;;;;4873785;29;20043;-72
2023/07/03 05:53:11;;;;;;;12.93;3.40;;;;;;;;;;4886499;29;20044;-73
2023/07/03 05:55:37;;;;;;;15.13;2.72;;;;;;;;;;4905179;29;20039;-73
2023/07/03 05:58:03;;;;;;;13.75;2.28;;;;;;;;;;4906872;29;20055;-72
2023/07/03 06:00:33;;;;;;;11.88;3.25;;;;;;;;;;4906289;29;20052;-73
2023/07/03 06:02:59;;;;;;;15.73;2.65;;;;;;;;;;4890635;29;20059;-73
2023/07/03 06:05:25;;;;;;;8.13;2.50;;;;;;;;;;4894326;29;20055;-72
2023/07/03 06:07:51;;;;;;;15.10;2.30;;;;;;;;;;4887660;29;20044;-72
2023/07/03 06:10:17;;;;;;;12.00;2.00;;;;;;;;;;4889036;29;20075;-72
2023/07/03 06:12:44;;;;;;;13.90;2.53;;;;;;;;;;4887231;29;20048;-73
2023/07/03 06:15:10;;;;;;;14.65;3.00;;;;;;;;;;4909235;29;20163;-72
2023/07/03 06:17:37;;;;;;;9.90;2.42;;;;;;;;;;4910629;29;20075;-72
2023/07/03 06:20:04;;;;;;;20.33;2.80;;;;;;;;;;4889970;29;20043;-74
2023/07/03 06:22:30;;;;;;;8.38;1.85;;;;;;;;;;4878817;29;20075;-73
2023/07/03 06:24:56;;;;;;;9.95;2.00;;;;;;;;;;4894510;29;20048;-73
2023/07/03 06:27:22;;;;;;;11.63;2.17;;;;;;;;;;4897478;29;20044;-73
2023/07/03 06:29:48;;;;;;;17.23;2.85;;;;;;;;;;4909985;29;20055;-72
2023/07/03 06:32:16;;;;;;;8.15;3.20;;;;;;;;;;4909056;29;20064;-73
2023/07/03 06:34:42;;;;;;;15.88;2.45;;;;;;;;;;4874568;29;20066;-73
2023/07/03 06:37:08;;;;;;;11.52;2.53;;;;;;;;;;4904684;29;22774;-72
2023/07/03 06:39:37;;;;;;;10.35;2.42;;;;;;;;;;4904731;29;20399;-72
2023/07/03 06:42:03;;;;;;;7.85;2.03;;;;;;;;;;4886164;29;20052;-73
2023/07/03 06:44:29;;;;;;;9.55;2.85;;;;;;;;;;4893917;29;20067;-73
2023/07/03 06:46:55;;;;;;;7.43;1.90;;;;;;;;;;4903471;29;20039;-73
2023/07/03 06:49:24;;;;;;;8.55;2.20;;;;;;;;;;4885418;29;20769;-73
2023/07/03 06:51:51;;;;;;;10.80;2.45;;;;;;;;;;4902645;29;21037;-72
2023/07/03 06:54:17;;;;;;;14.18;2.28;;;;;;;;;;4884948;29;20048;-73
2023/07/03 06:56:43;;;;;;;9.48;2.38;;;;;;;;;;4886168;29;20051;-74
2023/07/03 06:59:09;;;;;;;28.33;3.85;;;;;;;;;;4889462;29;20051;-79
2023/07/03 07:01:35;;;;;;;20.48;3.75;;;;;;;;;;4893299;29;20063;-84
2023/07/03 07:04:01;;;;;;;20.80;3.10;;;;;;;;;;4907065;29;20036;-87
2023/07/03 07:06:28;;;;;;;16.75;2.78;;;;;;;;;;4905223;29;20090;-87
2023/07/03 07:08:55;;;;;;;15.65;2.85;;;;;;;;;;4909021;29;20051;-83
2023/07/03 07:11:22;;;;;;;16.92;2.90;;;;;;;;;;4907306;29;20937;-85
2023/07/03 07:13:50;;;;;;;17.90;2.80;;;;;;;;;;4887693;29;20047;-81
2023/07/03 07:16:18;;;;;;;16.27;3.33;;;;;;;;;;4882180;29;20065;-80
2023/07/03 07:18:46;;;;;;;13.15;3.15;;;;;;;;;;4906119;29;20047;-79
2023/07/03 07:21:12;;;;;;;13.23;2.70;;;;;;;;;;4901464;29;20051;-78
2023/07/03 07:23:38;;;;;;;14.40;3.03;;;;;;;;;;4900829;29;20052;-77
2023/07/03 07:26:04;;;;;;;8.82;2.38;;;;;;;;;;4884200;29;20063;-78
2023/07/03 07:28:30;;;;;;;10.88;2.85;;;;;;;;;;4885319;29;21359;-77
2023/07/03 07:30:57;;;;;;;15.40;3.20;;;;;;;;;;4902443;29;20059;-77
2023/07/03 07:33:23;;;;;;;11.40;2.95;;;;;;;;;;4891463;29;20067;-76
2023/07/03 07:35:50;;;;;;;12.70;3.35;;;;;;;;;;4885662;29;20055;-78
2023/07/03 07:38:16;;;;;;;19.38;3.83;;;;;;;;;;4902240;29;20060;-77
2023/07/03 07:40:43;;;;;;;14.07;2.95;;;;;;;;;;4896549;29;20102;-77
2023/07/03 07:43:09;;;;;;;15.07;3.42;;;;;;;;;;4888538;29;20054;-77
2023/07/03 07:45:37;;;;;;;10.95;2.65;;;;;;;;;;4873647;29;20071;-77
2023/07/03 07:48:03;;;;;;;15.25;2.95;;;;;;;;;;4888757;29;20149;-78
2023/07/03 07:50:29;;;;;;;12.63;2.85;;;;;;;;;;4905830;29;20047;-77
2023/07/03 07:52:59;;;;;;;10.75;2.40;;;;;;;;;;4888397;29;20185;-76
2023/07/03 07:55:25;;;;;;;8.43;2.80;;;;;;;;;;4885614;29;22049;-75
2023/07/03 07:57:51;;;;;;;9.82;3.08;;;;;;;;;;4886755;29;20151;-76
2023/07/03 08:00:18;;;;;;;8.88;2.05;;;;;;;;;;4885399;29;20139;-76
2023/07/03 08:02:44;;;;;;;9.80;2.40;;;;;;;;;;4885191;29;20047;-76
2023/07/03 08:05:10;;;;;;;12.07;2.13;;;;;;;;;;4872781;29;20083;-76
2023/07/03 08:07:36;;;;;;;8.32;2.28;;;;;;;;;;4885048;29;20047;-76
2023/07/03 08:10:02;;;;;;;8.95;1.95;;;;;;;;;;4887441;29;20044;-76
2023/07/03 08:12:28;;;;;;;10.00;1.80;;;;;;;;;;4863602;29;20087;-76
2023/07/03 08:14:54;;;;;;;9.30;1.40;;;;;;;;;;4874206;29;20110;-76
2023/07/03 08:17:20;;;;;;;16.15;2.30;;;;;;;;;;4888178;29;20091;-76
2023/07/03 08:19:46;;;;;;;7.65;1.45;;;;;;;;;;4888041;29;20043;-75
2023/07/03 08:22:12;;;;;;;9.88;1.75;;;;;;;;;;4904906;29;20070;-75
2023/07/03 08:24:38;;;;;;;9.25;2.45;;;;;;;;;;4889040;29;20162;-75
2023/07/03 08:27:05;;;;;;;5.40;1.30;;;;;;;;;;4886917;29;20040;-76
2023/07/03 08:29:31;;;;;;;7.55;1.33;;;;;;;;;;4888271;29;20077;-75
2023/07/03 08:31:57;;;;;;;12.15;1.67;;;;;;;;;;4894123;29;20068;-76
2023/07/03 08:34:23;;;;;;;8.38;1.90;;;;;;;;;;4888508;29;20461;-76
2023/07/03 08:36:49;;;;;;;8.00;1.40;;;;;;;;;;4906156;29;20116;-75
2023/07/03 08:39:15;;;;;;;7.63;1.67;;;;;;;;;;4888095;29;20043;-75
2023/07/03 08:41:46;;;;;;;7.10;2.05;;;;;;;;;;4887692;29;20062;-75
2023/07/03 08:44:13;;;;;;;6.13;1.80;;;;;;;;;;4895265;29;20039;-76
2023/07/03 08:46:39;;;;;;;3.92;1.33;;;;;;;;;;4904576;29;20079;-75
2023/07/03 08:49:06;;;;;;;7.22;1.25;;;;;;;;;;4878319;29;20040;-75
2023/07/03 08:51:35;;;;;;;4.45;1.30;;;;;;;;;;4889027;29;20059;-75
2023/07/03 08:54:04;;;;;;;6.70;1.45;;;;;;;;;;4886276;29;20048;-77
2023/07/03 08:56:33;;;;;;;9.27;1.50;;;;;;;;;;4888343;29;20066;-76
2023/07/03 08:58:59;;;;;;;2.75;0.70;;;;;;;;;;4871680;29;20048;-76
2023/07/03 09:01:28;;;;;;;5.30;1.23;;;;;;;;;;4888136;29;20059;-76
2023/07/03 09:04:05;;;;;;;5.55;1.13;;;;;;;;;;4904208;29;20048;-76
2023/07/03 09:06:43;;;;;;;6.78;1.20;;;;;;;;;;4886444;29;20130;-76
2023/07/03 09:09:16;;;;;;;6.10;1.30;;;;;;;;;;4904519;29;20388;-76
2023/07/03 09:11:45;;;;;;;6.45;1.40;;;;;;;;;;4886664;29;20066;-76
2023/07/03 09:14:18;;;;;;;5.07;1.50;;;;;;;;;;4887481;29;20483;-76
2023/07/03 09:16:46;;;;;;;6.88;1.88;;;;;;;;;;4886307;29;20062;-76
2023/07/03 09:19:21;;;;;;;9.18;1.65;;;;;;;;;;4895210;29;20059;-74
2023/07/03 09:21:49;;;;;;;4.78;1.02;;;;;;;;;;4902959;29;20110;-75
2023/07/03 09:24:21;;;;;;;6.43;1.52;;;;;;;;;;4885872;29;23415;-75
2023/07/03 09:27:00;;;;;;;6.95;1.38;;;;;;;;;;4885833;29;20051;-75
2023/07/03 09:29:26;;;;;;;7.40;1.50;;;;;;;;;;4886577;29;20088;-74
2023/07/03 09:31:55;;;;;;;5.57;1.10;;;;;;;;;;4889444;29;20060;-76
2023/07/03 09:34:21;;;;;;;6.28;1.90;;;;;;;;;;4886014;29;20052;-75
2023/07/03 09:36:58;;;;;;;11.48;2.10;;;;;;;;;;4910722;29;20050;-79
2023/07/03 09:39:25;;;;;;;7.60;1.42;;;;;;;;;;4894523;29;20087;-76
2023/07/03 09:41:51;;;;;;;4.90;1.42;;;;;;;;;;4892597;29;22065;-78
2023/07/03 09:44:18;;;;;;;7.82;1.50;;;;;;;;;;4889905;29;20054;-77
2023/07/03 09:46:45;;;;;;;6.22;1.60;;;;;;;;;;4904197;29;20751;-77
2023/07/03 09:49:21;;;;;;;8.80;1.77;;;;;;;;;;4878017;29;20092;-76
2023/07/03 09:51:51;;;;;;;8.00;1.50;;;;;;;;;;4888229;29;20083;-76
2023/07/03 09:54:22;;;;;;;8.07;1.30;;;;;;;;;;4877405;29;20527;-76
2023/07/03 09:56:49;;;;;;;13.38;1.60;;;;;;;;;;4894464;29;20052;-76
2023/07/03 09:59:19;;;;;;;5.90;2.15;;;;;;;;;;4886333;29;20051;-75
2023/07/03 10:01:45;;;;;;;4.45;1.27;;;;;;;;;;4902689;29;20052;-76
2023/07/03 10:04:13;;;;;;;7.25;1.90;;;;;;;;;;4904062;29;20463;-76
2023/07/03 10:06:40;;;;;;;6.43;1.27;;;;;;;;;;4887071;29;20094;-76
2023/07/03 10:09:09;;;;;;;8.45;1.40;;;;;;;;;;4887523;29;20047;-76
2023/07/03 10:11:56;;;;;;;8.10;1.30;;;;;;;;;;4903941;29;20051;-75
2023/07/03 10:14:29;;;;;;;5.28;1.20;;;;;;;;;;4904795;29;20074;-75
2023/07/03 10:16:55;;;;;;;3.30;1.17;;;;;;;;;;4895184;29;20114;-76
2023/07/03 10:19:21;;;;;;;7.35;1.38;;;;;;;;;;4897044;29;20139;-73
2023/07/03 10:21:48;;;;;;;10.82;1.27;;;;;;;;;;4899512;29;20574;-75
2023/07/03 10:24:14;;;;;;;7.30;1.30;;;;;;;;;;4897730;29;21097;-75
2023/07/03 10:26:53;;;;;;;4.85;1.20;;;;;;;;;;4879005;29;21341;-75
2023/07/03 10:29:24;;;;;;;4.32;1.00;;;;;;;;;;4877628;29;20080;-75
2023/07/03 10:31:54;;;;;;;4.72;1.00;;;;;;;;;;4872718;29;20075;-76
2023/07/03 10:34:26;;;;;;;6.30;1.13;;;;;;;;;;4889147;29;20909;-75
2023/07/03 10:36:55;;;;;;;5.30;1.35;;;;;;;;;;4887635;29;20860;-74
2023/07/03 10:39:31;;;;;;;4.18;1.33;;;;;;;;;;4886442;29;20156;-74
2023/07/03 10:41:59;;;;;;;3.30;0.95;;;;;;;;;;4901542;29;20142;-73
2023/07/03 10:44:28;;;;;;;3.20;0.80;;;;;;;;;;4903492;29;20044;-74
2023/07/03 10:46:57;;;;;;;2.50;0.80;;;;;;;;;;4885002;29;20055;-74
2023/07/03 10:49:30;;;;;;;7.75;1.50;;;;;;;;;;4885231;29;20071;-73
2023/07/03 10:51:57;;;;;;;6.10;0.90;;;;;;;;;;4886570;29;20043;-74
2023/07/03 10:54:29;;;;;;;3.47;1.30;;;;;;;;;;4885257;29;20342;-74
2023/07/03 10:56:56;;;;;;;8.95;1.02;;;;;;;;;;4901824;29;20059;-74
2023/07/03 10:59:32;;;;;;;9.60;1.88;;;;;;;;;;4904015;29;20058;-75
2023/07/03 11:01:59;;;;;;;8.95;1.40;;;;;;;;;;4887798;29;20500;-74
2023/07/03 11:04:44;;;;;;;2.95;1.10;;;;;;;;;;4887900;29;20048;-74
2023/07/03 11:07:27;;;;;;;4.90;1.23;;;;;;;;;;4895765;29;20134;-74
2023/07/03 11:10:09;;;;;;;3.00;1.30;;;;;;;;;;4904257;29;20127;-74
2023/07/03 11:12:41;;;;;;;7.07;1.60;;;;;;;;;;4904026;29;20098;-75
2023/07/03 11:15:07;;;;;;;3.13;1.08;;;;;;;;;;4887025;29;20059;-74
2023/07/03 11:17:33;;;;;;;5.70;1.10;;;;;;;;;;4886293;29;20059;-74
2023/07/03 11:20:08;;;;;;;5.88;1.20;;;;;;;;;;4889004;29;20131;-76
2023/07/03 11:22:34;;;;;;;7.13;1.38;;;;;;;;;;4904530;29;21005;-75
2023/07/03 11:25:00;;;;;;;8.63;1.95;;;;;;;;;;4888034;29;20044;-74
2023/07/03 11:27:33;;;;;;;8.93;1.30;;;;;;;;;;4891253;29;20090;-72
2023/07/03 11:29:59;;;;;;;5.47;1.83;;;;;;;;;;4885519;29;20040;-74
2023/07/03 11:32:25;;;;;;;7.03;1.40;;;;;;;;;;4902285;29;20260;-75
2023/07/03 11:34:52;;;;;;;5.82;1.30;;;;;;;;;;4903896;29;20043;-75
2023/07/03 11:37:33;;;;;;;3.15;1.40;;;;;;;;;;4903052;29;20054;-75
2023/07/03 11:40:19;;;;;;;6.05;1.33;;;;;;;;;;4886864;29;20096;-74
2023/07/03 11:42:46;;;;;;;5.13;1.15;;;;;;;;;;4884542;29;20067;-75
2023/07/03 11:45:24;;;;;;;8.52;1.52;;;;;;;;;;4884393;29;20048;-73
2023/07/03 11:47:52;;;;;;;4.75;1.10;;;;;;;;;;4870837;29;20618;-74
2023/07/03 11:50:26;;;;;;;7.35;1.00;;;;;;;;;;4890202;29;20044;-74
2023/07/03 11:52:52;;;;;;;;;;;;;;;;;;4894986;29;20127;-73
2023/07/03 11:55:21;;;;;;;6.32;1.00;;;;;;;;;;4885363;29;20389;-72
2023/07/03 11:57:54;;;;;;;4.57;1.17;;;;;;;;;;4901235;29;20051;-75
2023/07/03 12:00:22;;;;;;;8.38;1.70;;;;;;;;;;4885561;29;20067;-74
2023/07/03 12:02:48;;;;;;;5.00;1.20;;;;;;;;;;4888182;29;20149;-73
2023/07/03 12:05:33;;;;;;;2.50;0.95;;;;;;;;;;4902119;29;20516;-74
2023/07/03 12:07:59;;;;;;;8.75;1.60;;;;;;;;;;4878722;29;20131;-74
2023/07/03 12:10:28;;;;;;;3.30;1.10;;;;;;;;;;4889434;29;20043;-75
2023/07/03 12:13:14;;;;;;;4.60;1.35;;;;;;;;;;4903389;29;20354;-74
2023/07/03 12:15:40;;;;;;;7.32;1.77;;;;;;;;;;4873683;29;20062;-74
2023/07/03 12:18:07;;;;;;;6.13;1.30;;;;;;;;;;4887745;29;20048;-74
2023/07/03 12:20:34;;;;;;;5.05;1.00;;;;;;;;;;4887479;29;20131;-74
2023/07/03 12:23:01;;;;;;;5.25;2.50;;;;;;;;;;4904528;29;20048;-74
2023/07/03 12:25:28;;;;;;;7.88;1.42;;;;;;;;;;4870700;29;20517;-75
2023/07/03 12:27:56;;;;;;;5.10;0.98;;;;;;;;;;4878495;29;20040;-75
2023/07/03 12:30:23;;;;;;;5.95;1.55;;;;;;;;;;4904232;29;20051;-75
2023/07/03 12:32:50;;;;;;;4.65;1.25;;;;;;;;;;4907209;29;20051;-75
2023/07/03 12:35:17;;;;;;;5.57;1.38;;;;;;;;;;4904795;29;20053;-75
2023/07/03 12:37:52;;;;;;;7.60;1.33;;;;;;;;;;4903342;29;20665;-72
2023/07/03 12:40:19;;;;;;;4.28;0.77;;;;;;;;;;4907594;29;20048;-75
2023/07/03 12:42:46;;;;;;;2.95;1.00;;;;;;;;;;4892816;29;20729;-75
2023/07/03 12:45:23;;;;;;;9.75;1.30;;;;;;;;;;4910467;29;20082;-76
2023/07/03 12:48:05;;;;;;;13.57;1.55;;;;;;;;;;4894918;29;20146;-76
2023/07/03 12:50:31;;;;;;;4.22;0.93;;;;;;;;;;4912180;29;20072;-77
2023/07/03 12:52:58;;;;;;;10.25;1.48;;;;;;;;;;4892573;29;20044;-76
2023/07/03 12:55:25;;;;;;;5.20;1.20;;;;;;;;;;4905949;29;20496;-77
2023/07/03 12:57:52;;;;;;;6.50;1.00;;;;;;;;;;4894746;29;20079;-76
2023/07/03 13:00:24;;;;;;;5.55;1.38;;;;;;;;;;4881490;29;20058;-77
2023/07/03 13:02:50;;;;;;;8.05;1.50;;;;;;;;;;4895413;29;20063;-76
2023/07/03 13:05:22;;;;;;;4.25;1.00;;;;;;;;;;4897549;29;20039;-76
2023/07/03 13:07:48;;;;;;;4.43;1.75;;;;;;;;;;4914294;29;20450;-76
2023/07/03 13:10:17;;;;;;;4.03;0.90;;;;;;;;;;4897829;29;20495;-76
2023/07/03 13:12:43;;;;;;;7.03;1.63;;;;;;;;;;4888950;29;20055;-77
2023/07/03 13:15:28;;;;;;;5.72;1.20;;;;;;;;;;4914770;29;20186;-76
2023/07/03 13:18:02;;;;;;;5.60;1.23;;;;;;;;;;4897558;29;20641;-76
2023/07/03 13:20:29;;;;;;;6.20;1.35;;;;;;;;;;4895651;29;20067;-77
2023/07/03 13:23:00;;;;;;;12.07;1.52;;;;;;;;;;4896870;29;20173;-76
2023/07/03 13:25:28;;;;;;;4.97;1.40;;;;;;;;;;4912079;29;20069;-75
2023/07/03 13:27:54;;;;;;;3.95;1.30;;;;;;;;;;4898115;29;20048;-75
2023/07/03 13:30:29;;;;;;;6.15;1.20;;;;;;;;;;4898421;29;20052;-76
2023/07/03 13:33:00;;;;;;;5.13;1.08;;;;;;;;;;4913939;29;20055;-77
2023/07/03 13:35:31;;;;;;;9.68;1.33;;;;;;;;;;4911440;29;20175;-77
2023/07/03 13:38:11;;;;;;;7.40;1.67;;;;;;;;;;4912382;29;20091;-77
2023/07/03 13:40:37;;;;;;;7.25;1.52;;;;;;;;;;4896710;29;20079;-76
2023/07/03 13:43:04;;;;;;;4.53;1.02;;;;;;;;;;4893287;29;20055;-75
2023/07/03 13:45:31;;;;;;;6.55;1.90;;;;;;;;;;4895247;29;20423;-76
2023/07/03 13:47:57;;;;;;;7.07;1.60;;;;;;;;;;4909351;29;20044;-77
2023/07/03 13:50:24;;;;;;;3.85;1.15;;;;;;;;;;4887687;29;20052;-77
2023/07/03 13:52:50;;;;;;;8.82;1.35;;;;;;;;;;4888583;29;20084;-75
2023/07/03 13:55:16;;;;;;;4.68;1.20;;;;;;;;;;4889668;29;20092;-76
2023/07/03 13:57:43;;;;;;;2.70;0.75;;;;;;;;;;4907627;29;20063;-76
2023/07/03 14:00:11;;;;;;;3.78;1.00;;;;;;;;;;4893499;29;20071;-76
2023/07/03 14:02:38;;;;;;;5.65;1.17;;;;;;;;;;4892611;29;20086;-76
2023/07/03 14:05:05;;;;;;;5.22;1.10;;;;;;;;;;4907123;29;20052;-76
2023/07/03 14:07:31;;;;;;;9.52;1.45;;;;;;;;;;4886661;29;20504;-77
2023/07/03 14:09:59;;;;;;;8.75;1.90;;;;;;;;;;4887282;29;20705;-75
2023/07/03 14:12:25;;;;;;;7.05;1.70;;;;;;;;;;4903395;29;20051;-76
2023/07/03 14:14:51;;;;;;;11.00;1.70;;;;;;;;;;4902721;29;20099;-75
2023/07/03 14:17:18;;;;;;;6.00;1.27;;;;;;;;;;4872466;29;20373;-75
2023/07/03 14:19:44;;;;;;;5.22;1.50;;;;;;;;;;4890929;29;20100;-72
2023/07/03 14:22:10;;;;;;;7.68;1.30;;;;;;;;;;4894830;29;20104;-74
2023/07/03 14:24:36;;;;;;;4.15;1.48;;;;;;;;;;4893373;29;20044;-75
2023/07/03 14:27:02;;;;;;;6.70;1.38;;;;;;;;;;4910559;29;20051;-76
2023/07/03 14:29:28;;;;;;;6.47;1.30;;;;;;;;;;4907648;29;21195;-76
2023/07/03 14:31:55;;;;;;;4.10;1.38;;;;;;;;;;4895633;29;20071;-75
2023/07/03 14:34:21;;;;;;;5.82;1.42;;;;;;;;;;4886588;29;20062;-75
2023/07/03 14:36:47;;;;;;;7.03;1.65;;;;;;;;;;4886818;29;20048;-75
2023/07/03 14:39:13;;;;;;;8.57;1.35;;;;;;;;;;4885573;29;20055;-76